Time;durP1;ratioP1;P1;durP2;ratioP2;P2;SDS_P1;SDS_P2;PMS_P1;PMS_P2;Temp;Humidity;BMP_temperature;BMP_pressure;BME280_temperature;BME280_humidity;BME280_pressure;Samples;Min_cycle;Max_cycle;Signal;HPM_P1;HPM_P2
2022/08/29 00:00:16;;;;;;;1.50;1.40;;;;;;;14.94;65.95;102121.66;5074273;28;20046;-88
2022/08/29 00:02:41;;;;;;;1.35;1.25;;;;;;;14.90;65.12;102119.94;5074045;28;20027;-88
2022/08/29 00:05:07;;;;;;;1.63;1.37;;;;;;;14.87;67.48;102113.91;5073499;28;20037;-89
2022/08/29 00:07:32;;;;;;;1.43;1.33;;;;;;;14.83;65.68;102111.31;5074309;28;20078;-89
2022/08/29 00:09:58;;;;;;;2.27;1.50;;;;;;;14.81;65.05;102109.63;5074163;28;20099;-89
2022/08/29 00:12:23;;;;;;;2.10;1.60;;;;;;;14.77;65.79;102114.03;5073461;28;20024;-89
2022/08/29 00:14:48;;;;;;;1.60;1.43;;;;;;;14.78;65.32;102110.53;5074187;28;20025;-88
2022/08/29 00:17:14;;;;;;;2.03;1.40;;;;;;;14.79;65.71;102106.16;5074080;28;20017;-89
2022/08/29 00:19:39;;;;;;;2.60;1.70;;;;;;;14.78;65.68;102112.25;5073510;28;20040;-89
2022/08/29 00:22:04;;;;;;;2.77;1.90;;;;;;;14.76;65.50;102114.00;5073560;28;20025;-89
2022/08/29 00:24:32;;;;;;;2.87;1.77;;;;;;;14.73;65.82;102108.84;5073575;28;20029;-89
2022/08/29 00:27:00;;;;;;;4.25;2.10;;;;;;;14.71;65.29;102105.38;5053408;28;20024;-89
2022/08/29 00:29:26;;;;;;;3.13;2.22;;;;;;;14.70;65.30;102098.44;5053955;28;20025;-89
2022/08/29 00:31:51;;;;;;;4.00;2.10;;;;;;;14.68;65.33;102103.69;5053771;28;20204;-89
2022/08/29 00:34:17;;;;;;;4.20;2.50;;;;;;;14.66;65.44;102110.63;5053023;28;20028;-89
2022/08/29 00:36:42;;;;;;;4.77;2.50;;;;;;;14.64;65.56;102112.41;5053669;28;20029;-89
2022/08/29 00:39:07;;;;;;;3.03;2.40;;;;;;;14.59;66.13;102103.75;5053508;28;20025;-89
2022/08/29 00:41:33;;;;;;;4.53;2.67;;;;;;;14.55;65.54;102109.91;5053225;28;20044;-90
2022/08/29 00:43:58;;;;;;;4.73;2.80;;;;;;;14.48;65.84;102114.31;5053671;28;20021;-89
2022/08/29 00:46:39;;;;;;;4.67;2.63;;;;;;;14.44;66.20;102118.72;5053699;28;20538;-89
2022/08/29 00:49:09;;;;;;;5.07;2.70;;;;;;;14.41;66.24;102117.91;5052898;28;20029;-89
2022/08/29 00:51:35;;;;;;;5.40;2.50;;;;;;;14.36;66.14;102116.19;5054342;28;20037;-89
2022/08/29 00:54:05;;;;;;;6.45;2.90;;;;;;;14.33;66.33;102123.19;5052599;28;20047;-89
2022/08/29 00:56:31;;;;;;;5.53;2.90;;;;;;;14.29;66.52;102116.28;5053584;28;20493;-89
2022/08/29 00:59:07;;;;;;;4.97;2.60;;;;;;;14.24;66.63;102107.63;5053408;28;20082;-89
2022/08/29 01:01:33;;;;;;;5.40;2.78;;;;;;;14.18;66.88;102114.63;5053224;28;20035;-89
2022/08/29 01:03:59;;;;;;;5.77;2.53;;;;;;;14.13;66.74;102112.94;5053213;28;20433;-89
2022/08/29 01:06:26;;;;;;;3.57;2.40;;;;;;;14.08;66.99;102122.56;5053613;28;20017;-89
2022/08/29 01:08:54;;;;;;;6.35;2.90;;;;;;;14.03;66.91;102122.59;5052534;28;20124;-89
2022/08/29 01:14:16;;;;;;;5.88;3.00;;;;;;;13.97;66.97;102114.84;5054315;28;19920;-90
2022/08/29 01:16:49;;;;;;;5.60;3.05;;;;;;;13.92;67.35;102120.09;5045005;28;20056;-88
2022/08/29 01:19:38;;;;;;;4.68;2.75;;;;;;;13.87;67.26;102120.16;5053552;28;20032;-89
2022/08/29 01:22:12;;;;;;;5.70;2.80;;;;;;;13.84;67.12;102124.53;5052878;28;20021;-89
2022/08/29 01:24:52;;;;;;;4.88;2.75;;;;;;;13.79;67.32;102121.09;5053524;28;20484;-90
2022/08/29 01:27:20;;;;;;;5.63;2.78;;;;;;;13.73;67.59;102122.00;5053330;28;20457;-90
2022/08/29 01:29:46;;;;;;;5.72;2.95;;;;;;;13.70;67.86;102122.03;5052560;28;20029;-90
2022/08/29 01:32:11;;;;;;;7.10;3.27;;;;;;;13.67;67.65;102122.91;5053191;28;20028;-90
2022/08/29 01:34:37;;;;;;;6.53;3.10;;;;;;;13.64;67.75;102122.94;5053419;28;20037;-90
2022/08/29 01:37:06;;;;;;;7.33;3.20;;;;;;;13.62;68.00;102122.09;5061248;22;20017;-90
2022/08/29 01:39:35;;;;;;;6.22;3.38;;;;;;;13.58;68.23;102126.44;5072618;28;20551;-90
2022/08/29 01:42:19;;;;;;;6.15;3.33;;;;;;;13.56;68.34;102116.91;5072939;28;20080;-90
2022/08/29 01:45:04;;;;;;;6.75;3.53;;;;;;;13.50;68.20;102107.38;5073015;28;20021;-90
2022/08/29 01:47:33;;;;;;;6.53;3.40;;;;;;;13.47;68.35;102111.78;5073183;28;20453;-90
2022/08/29 01:50:00;;;;;;;5.85;3.40;;;;;;;13.42;68.57;102104.84;5073097;28;20024;-90
2022/08/29 01:52:55;;;;;;;7.32;3.13;;;;;;;13.41;68.65;102110.06;5072588;28;20119;-90
2022/08/29 01:55:36;;;;;;;8.48;3.40;;;;;;;13.40;68.64;102109.19;5055581;28;20119;-89
2022/08/29 01:58:01;;;;;;;5.82;3.30;;;;;;;13.37;68.84;102110.91;5072296;28;20082;-89
2022/08/29 02:00:27;;;;;;;9.33;3.60;;;;;;;13.36;69.05;102115.28;5073298;28;20477;-88
2022/08/29 02:03:07;;;;;;;6.73;3.50;;;;;;;13.31;69.17;102121.41;5074949;28;20058;-89
2022/08/29 02:05:32;;;;;;;6.68;3.25;;;;;;;13.29;69.15;102121.41;5075785;28;20526;-89
2022/08/29 02:07:59;;;;;;;6.77;3.50;;;;;;;13.27;68.86;102117.97;5076304;28;20150;-89
2022/08/29 02:10:25;;;;;;;5.60;3.42;;;;;;;13.24;69.49;102117.97;5076779;28;20025;-89
2022/08/29 02:13:01;;;;;;;7.57;3.30;;;;;;;13.19;69.43;102112.78;5075844;28;20115;-89
2022/08/29 02:15:26;;;;;;;;;;;;;;;13.19;69.49;102114.50;5077164;28;20027;-89
2022/08/29 02:17:52;;;;;;;5.23;2.97;;;;;;;13.14;69.66;102111.94;5076515;28;20002;-90
2022/08/29 02:20:17;;;;;;;8.00;3.27;;;;;;;13.09;69.51;102109.34;5076888;28;20071;-90
2022/08/29 02:22:43;;;;;;;6.03;3.30;;;;;;;13.06;69.77;102117.19;5076652;28;20032;-89
2022/08/29 02:28:17;;;;;;;5.75;3.00;;;;;;;13.03;69.73;102130.25;5076318;28;20055;-89
2022/08/29 02:30:45;;;;;;;6.18;3.10;;;;;;;13.02;69.98;102130.25;5076560;28;20027;-89
2022/08/29 02:33:12;;;;;;;5.63;3.15;;;;;;;12.99;69.78;102128.53;5075441;28;20496;-89
2022/08/29 02:35:55;;;;;;;6.35;3.05;;;;;;;12.97;70.42;102138.97;5076518;28;20021;-89
2022/08/29 02:38:21;;;;;;;6.07;2.90;;;;;;;12.94;70.30;102135.50;5075652;28;20060;-90
2022/08/29 02:40:47;;;;;;;6.47;2.90;;;;;;;12.90;70.68;102133.78;5075687;28;20040;-89
2022/08/29 02:43:24;;;;;;;;;;;;;;;;;;;;;
2022/08/29 02:45:50;;;;;;;5.07;2.80;;;;;;;12.85;70.38;102139.00;5073534;28;20428;-89
2022/08/29 02:48:16;;;;;;;4.63;2.60;;;;;;;12.82;70.50;102139.00;5075367;28;20048;-89
2022/08/29 02:50:45;;;;;;;4.77;2.77;;;;;;;12.79;70.55;102142.50;5076113;28;20104;-90
2022/08/29 02:53:29;;;;;;;4.57;2.70;;;;;;;12.77;70.54;102138.19;5075567;28;20036;-89
2022/08/29 02:55:55;;;;;;;4.88;2.65;;;;;;;12.75;70.58;102143.38;5075247;28;20016;-90
2022/08/29 02:58:27;;;;;;;5.17;2.70;;;;;;;12.74;70.58;102143.41;5076005;28;20036;-90
2022/08/29 03:00:52;;;;;;;5.55;2.92;;;;;;;12.72;70.82;102142.53;5074564;28;20371;-90
2022/08/29 03:03:18;;;;;;;5.90;3.07;;;;;;;12.70;70.83;102137.34;5075900;28;20025;-90
2022/08/29 03:05:55;;;;;;;5.87;2.90;;;;;;;12.70;71.03;102132.13;5075843;28;20024;-89
2022/08/29 03:08:23;;;;;;;5.60;2.80;;;;;;;12.72;70.77;102134.72;5074229;28;20072;-89
2022/08/29 03:10:49;;;;;;;4.65;2.80;;;;;;;12.73;71.08;102131.25;5075549;28;20032;-90
2022/08/29 03:13:29;;;;;;;5.93;2.90;;;;;;;12.71;70.65;102126.06;5074938;28;20487;-90
2022/08/29 03:15:54;;;;;;;4.53;2.70;;;;;;;12.71;71.08;102131.25;5074147;28;20054;-89
2022/08/29 03:18:31;;;;;;;4.10;2.70;;;;;;;12.70;71.00;102129.53;5075239;28;20039;-89
2022/08/29 03:21:19;;;;;;;5.07;2.50;;;;;;;12.70;71.17;102131.25;5075344;28;20024;-89
2022/08/29 03:23:56;;;;;;;3.83;2.50;;;;;;;12.66;71.30;102130.41;5075115;28;20016;-89
2022/08/29 03:26:22;;;;;;;4.72;2.55;;;;;;;12.64;70.98;102124.31;5075177;28;20484;-90
2022/08/29 03:29:03;;;;;;;3.77;2.47;;;;;;;12.62;70.95;102124.34;5074659;28;20082;-89
2022/08/29 03:31:28;;;;;;;3.20;2.17;;;;;;;12.62;71.44;102131.25;5075099;28;20029;-89
2022/08/29 03:33:55;;;;;;;3.00;1.90;;;;;;;12.56;71.54;102120.88;5074957;28;20469;-90
2022/08/29 03:36:34;;;;;;;3.85;1.92;;;;;;;12.52;71.46;102120.03;5073915;28;20032;-89
2022/08/29 03:38:59;;;;;;;3.35;2.15;;;;;;;12.49;71.64;102120.03;5074728;28;20079;-89
2022/08/29 03:41:40;;;;;;;2.37;2.00;;;;;;;12.48;71.53;102121.78;5075222;28;20409;-89
2022/08/29 03:44:05;;;;;;;2.33;1.85;;;;;;;12.46;71.90;102120.91;5074477;28;20032;-89
2022/08/29 03:46:31;;;;;;;2.03;1.83;;;;;;;12.46;72.07;102123.50;5074801;28;20024;-89
2022/08/29 03:49:01;;;;;;;2.50;1.97;;;;;;;12.44;71.97;102109.63;5074623;28;20023;-88
2022/08/29 03:51:27;;;;;;;2.45;1.83;;;;;;;12.42;72.04;102108.75;5073965;28;20017;-87
2022/08/29 03:53:54;;;;;;;2.20;2.00;;;;;;;12.41;72.02;102094.00;5074066;28;20028;-90
2022/08/29 03:56:32;;;;;;;2.65;1.98;;;;;;;12.41;71.86;102090.56;5074444;28;20225;-88
2022/08/29 03:58:57;;;;;;;2.08;1.90;;;;;;;12.40;72.25;102091.41;5073290;28;20031;-86
2022/08/29 04:01:27;;;;;;;3.03;2.00;;;;;;;12.39;72.19;102092.28;5074668;28;20020;-89
2022/08/29 04:03:54;;;;;;;2.75;1.90;;;;;;;12.40;72.05;102092.28;5072810;28;20048;-84
2022/08/29 04:06:21;;;;;;;2.63;1.88;;;;;;;12.41;72.25;102085.34;5073678;28;20037;-84
2022/08/29 04:08:47;;;;;;;2.95;2.03;;;;;;;12.40;72.35;102092.28;5073460;28;20030;-84
2022/08/29 04:11:13;;;;;;;2.00;1.80;;;;;;;12.41;72.26;102086.19;5072506;28;20029;-84
2022/08/29 04:13:39;;;;;;;;;;;;;;;12.43;72.49;102089.66;5074105;28;20024;-84
2022/08/29 04:16:13;;;;;;;2.67;1.97;;;;;;;12.44;72.32;102094.00;5073491;28;19918;-84
2022/08/29 04:18:39;;;;;;;3.65;2.10;;;;;;;12.45;72.28;102098.34;5072718;28;20102;-84
2022/08/29 04:21:05;;;;;;;4.60;2.10;;;;;;;12.47;72.40;102099.22;5073061;28;20137;-84
2022/08/29 04:23:31;;;;;;;3.17;2.08;;;;;;;12.49;72.40;102109.63;5073457;28;20024;-84
2022/08/29 04:25:56;;;;;;;3.17;2.00;;;;;;;12.50;72.24;102104.38;5072184;28;20086;-84
2022/08/29 04:28:22;;;;;;;2.30;1.93;;;;;;;12.48;72.58;102106.16;5073057;28;20032;-84
2022/08/29 04:30:49;;;;;;;2.17;1.88;;;;;;;12.47;72.54;102108.75;5073088;28;20032;-88
2022/08/29 04:33:15;;;;;;;3.03;1.90;;;;;;;12.46;72.28;102104.41;5073030;28;20027;-88
2022/08/29 04:35:40;;;;;;;2.50;1.90;;;;;;;12.44;72.58;102112.22;5074010;28;20111;-88
2022/08/29 04:38:07;;;;;;;2.30;1.90;;;;;;;12.44;72.80;102113.97;5073203;28;20048;-89
2022/08/29 04:40:33;;;;;;;4.22;2.00;;;;;;;12.43;72.42;102120.06;5071819;28;20052;-91
2022/08/29 04:42:58;;;;;;;2.13;1.87;;;;;;;12.41;72.12;102112.22;5073075;28;20095;-91
2022/08/29 04:45:24;;;;;;;2.00;1.80;;;;;;;12.40;72.49;102122.66;5073394;28;20318;-95
2022/08/29 04:47:50;;;;;;;2.77;2.03;;;;;;;12.37;72.68;102123.53;5072487;28;20526;-94
2022/08/29 04:50:18;;;;;;;2.30;1.90;;;;;;;12.35;72.72;102120.06;5073077;28;20546;-95
2022/08/29 04:52:44;;;;;;;1.83;1.60;;;;;;;12.32;73.07;102122.66;5073051;28;20392;-88
2022/08/29 04:55:10;;;;;;;1.83;1.70;;;;;;;12.28;73.03;102119.22;5072297;28;20028;-89
2022/08/29 04:57:37;;;;;;;1.88;1.60;;;;;;;12.24;73.13;102121.81;5073138;28;20025;-89
2022/08/29 05:00:05;;;;;;;2.08;1.50;;;;;;;12.18;73.38;102120.94;5073513;28;20029;-89
2022/08/29 05:02:30;;;;;;;1.55;1.45;;;;;;;12.15;72.88;102115.78;5073045;28;20028;-89
2022/08/29 05:04:56;;;;;;;1.57;1.47;;;;;;;12.14;73.35;102118.34;5073036;28;20100;-90
2022/08/29 05:07:25;;;;;;;2.43;1.80;;;;;;;12.14;73.07;102126.16;5072226;28;20024;-90
2022/08/29 05:10:20;;;;;;;2.22;1.60;;;;;;;12.15;73.20;102122.69;5073412;28;20119;-90
2022/08/29 05:12:46;;;;;;;1.90;1.75;;;;;;;12.15;73.21;102120.97;5056171;28;20065;-90
2022/08/29 05:15:13;;;;;;;2.17;1.67;;;;;;;12.17;73.16;102126.19;5072080;28;20028;-89
2022/08/29 05:17:39;;;;;;;1.67;1.58;;;;;;;12.19;72.96;102124.44;5073028;28;20028;-89
2022/08/29 05:20:06;;;;;;;1.80;1.70;;;;;;;12.19;73.26;102125.28;5073023;28;20032;-89
2022/08/29 05:22:32;;;;;;;1.80;1.70;;;;;;;12.22;73.24;102133.97;5072474;28;20384;-88
2022/08/29 05:24:58;;;;;;;1.80;1.67;;;;;;;12.22;73.65;102124.41;5072125;28;20029;-88
2022/08/29 05:27:23;;;;;;;1.70;1.60;;;;;;;12.25;73.42;102133.97;5073228;28;20336;-89
2022/08/29 05:29:50;;;;;;;1.40;1.30;;;;;;;12.25;73.40;102133.97;5071530;28;20025;-86
2022/08/29 05:32:18;;;;;;;1.70;1.60;;;;;;;12.28;73.67;102144.34;5072472;28;20052;-89
2022/08/29 05:34:47;;;;;;;2.10;1.63;;;;;;;12.31;73.64;102141.75;5072292;28;20036;-88
2022/08/29 05:37:15;;;;;;;1.50;1.40;;;;;;;12.34;73.45;102140.00;5072001;28;20033;-90
2022/08/29 05:39:59;;;;;;;1.70;1.60;;;;;;;12.39;73.78;102145.22;5076947;28;20072;-93
2022/08/29 05:42:27;;;;;;;1.73;1.48;;;;;;;12.43;73.39;102144.34;5076304;28;20029;-93
2022/08/29 05:44:52;;;;;;;1.58;1.48;;;;;;;12.49;73.76;102148.66;5081124;28;20337;-92
2022/08/29 05:47:19;;;;;;;1.70;1.60;;;;;;;12.54;73.40;102151.25;5082809;28;20021;-94
2022/08/29 05:49:46;;;;;;;1.45;1.35;;;;;;;12.59;73.63;102159.94;5077326;28;20028;-96
2022/08/29 05:52:14;;;;;;;1.40;1.30;;;;;;;12.65;73.69;102163.41;5077288;28;20029;-96
2022/08/29 05:54:41;;;;;;;1.38;1.27;;;;;;;12.72;73.74;102160.75;5077784;28;20021;-94
2022/08/29 05:57:20;;;;;;;1.65;1.55;;;;;;;12.75;73.65;102152.94;5076045;28;20544;-94
2022/08/29 05:59:47;;;;;;;1.23;1.13;;;;;;;12.79;73.93;102152.94;5077811;28;20028;-94
2022/08/29 06:02:12;;;;;;;1.65;1.55;;;;;;;12.85;73.33;102156.38;5077247;28;20094;-93
2022/08/29 06:04:50;;;;;;;1.50;1.40;;;;;;;12.95;73.23;102158.06;5075959;28;20446;-88
2022/08/29 06:07:16;;;;;;;1.67;1.58;;;;;;;13.04;73.49;102158.03;5076175;28;20021;-88
2022/08/29 06:09:42;;;;;;;1.50;1.40;;;;;;;13.11;73.94;102159.75;5075514;28;20037;-90
2022/08/29 06:12:11;;;;;;;1.50;1.40;;;;;;;13.18;73.69;102157.09;5075755;28;20189;-89
2022/08/29 06:14:37;;;;;;;1.35;1.25;;;;;;;13.24;73.91;102164.91;5076768;28;20016;-89
2022/08/29 06:17:04;;;;;;;2.40;1.30;;;;;;;13.32;73.41;102172.69;5076547;28;20473;-89
2022/08/29 06:19:33;;;;;;;1.45;1.35;;;;;;;13.39;73.42;102174.38;5076195;28;20479;-89
2022/08/29 06:22:00;;;;;;;1.40;1.30;;;;;;;13.47;73.12;102170.00;5076372;28;20017;-89
2022/08/29 06:24:25;;;;;;;1.40;1.30;;;;;;;13.54;73.66;102173.44;5076512;28;20481;-89
2022/08/29 06:26:50;;;;;;;1.57;1.47;;;;;;;13.58;73.18;102175.16;5076228;28;20033;-89
2022/08/29 06:29:15;;;;;;;1.60;1.50;;;;;;;13.64;72.99;102169.88;5076525;28;20106;-90
2022/08/29 06:31:41;;;;;;;1.70;1.53;;;;;;;13.70;72.88;102180.28;5076353;28;20032;-90
2022/08/29 06:34:06;;;;;;;2.17;1.70;;;;;;;13.73;72.96;102172.47;5076412;28;20533;-89
2022/08/29 06:36:33;;;;;;;2.00;1.53;;;;;;;13.80;72.83;102169.78;5077187;28;20107;-91
2022/08/29 06:39:01;;;;;;;1.30;1.20;;;;;;;13.84;73.15;102177.56;5076370;28;20047;-90
2022/08/29 06:41:27;;;;;;;1.23;1.13;;;;;;;13.89;73.67;102175.81;5076380;28;20020;-92
2022/08/29 06:43:57;;;;;;;1.38;1.27;;;;;;;13.94;73.94;102160.13;5076369;28;20020;-92
2022/08/29 06:46:29;;;;;;;1.30;1.20;;;;;;;14.00;73.33;102174.84;5075533;28;20098;-92
2022/08/29 06:48:56;;;;;;;1.73;1.30;;;;;;;14.10;73.05;102186.06;5076044;28;20465;-90
2022/08/29 06:51:22;;;;;;;1.33;1.23;;;;;;;14.21;73.83;102186.84;5076126;28;20078;-91
2022/08/29 06:53:48;;;;;;;1.35;1.25;;;;;;;14.30;73.40;102184.13;5075560;28;20354;-90
2022/08/29 06:56:14;;;;;;;1.50;1.40;;;;;;;14.42;73.52;102192.72;5076238;28;20036;-90
2022/08/29 06:58:40;;;;;;;1.20;1.20;;;;;;;14.55;73.60;102191.75;5076051;28;20454;-90
2022/08/29 07:01:11;;;;;;;1.20;1.10;;;;;;;14.70;73.80;102179.44;5074589;28;20029;-90
2022/08/29 07:03:36;;;;;;;1.40;1.30;;;;;;;14.82;73.08;102179.28;5075870;28;20025;-91
2022/08/29 07:06:02;;;;;;;2.70;1.47;;;;;;;14.97;74.85;102180.84;5075509;28;20031;-90
2022/08/29 07:08:27;;;;;;;2.07;1.63;;;;;;;15.17;73.69;102185.84;5075257;28;20047;-90
2022/08/29 07:10:52;;;;;;;1.63;1.53;;;;;;;16.14;73.73;102183.53;5075379;28;20116;-89
2022/08/29 07:13:18;;;;;;;1.70;1.60;;;;;;;17.52;71.47;102191.28;5075850;28;20016;-90
2022/08/29 07:15:43;;;;;;;1.93;1.70;;;;;;;19.48;65.25;102191.38;5075168;28;20024;-90
2022/08/29 07:18:09;;;;;;;3.83;1.93;;;;;;;20.80;64.40;102186.06;5075335;28;20017;-90
2022/08/29 07:20:38;;;;;;;7.27;2.83;;;;;;;21.98;57.14;102186.72;5075499;28;20056;-90
2022/08/29 07:23:03;;;;;;;5.97;2.60;;;;;;;22.30;57.30;102181.81;5074053;28;20031;-90
2022/08/29 07:25:28;;;;;;;3.63;2.30;;;;;;;22.25;57.56;102186.47;5075579;28;20029;-90
2022/08/29 07:27:54;;;;;;;3.67;2.30;;;;;;;21.67;56.17;102195.91;5074463;28;20522;-90
2022/08/29 07:30:19;;;;;;;2.53;2.00;;;;;;;21.00;56.34;102186.22;5075130;28;20036;-90
2022/08/29 07:32:45;;;;;;;8.13;3.73;;;;;;;20.06;54.69;102175.44;5075485;28;20049;-91
2022/08/29 07:35:14;;;;;;;5.73;2.80;;;;;;;19.59;58.18;102190.09;5074494;28;20033;-91
2022/08/29 07:37:40;;;;;;;4.63;2.70;;;;;;;19.35;59.84;102185.63;5074779;28;20045;-91
2022/08/29 07:40:08;;;;;;;6.03;2.80;;;;;;;19.06;58.99;102182.97;5075090;28;20036;-90
2022/08/29 07:42:34;;;;;;;3.75;2.40;;;;;;;18.84;59.44;102180.06;5074620;28;20076;-91
2022/08/29 07:44:59;;;;;;;;;;;;;;;18.63;60.61;102171.03;5075166;28;20039;-90
2022/08/29 07:47:28;;;;;;;3.37;2.33;;;;;;;18.49;61.09;102164.41;5074970;28;19908;-90
2022/08/29 07:49:53;;;;;;;3.50;2.20;;;;;;;18.44;60.04;102161.00;5073993;28;20036;-90
2022/08/29 07:52:19;;;;;;;4.93;2.70;;;;;;;18.32;54.92;102172.72;5075020;28;20082;-91
2022/08/29 07:54:44;;;;;;;7.03;3.17;;;;;;;18.15;53.82;102159.16;5074826;28;20017;-92
2022/08/29 07:57:09;;;;;;;3.93;2.57;;;;;;;18.13;57.14;102166.22;5073511;28;20040;-91
2022/08/29 07:59:35;;;;;;;5.27;2.60;;;;;;;18.11;58.60;102168.03;5074299;28;20025;-91
2022/08/29 08:02:00;;;;;;;3.57;2.13;;;;;;;18.16;58.23;102171.41;5074371;28;20028;-92
2022/08/29 08:04:26;;;;;;;4.20;2.50;;;;;;;18.11;55.49;102175.94;5073779;28;20033;-90
2022/08/29 08:06:51;;;;;;;2.47;2.03;;;;;;;18.08;57.17;102176.00;5074604;28;20043;-90
2022/08/29 08:09:16;;;;;;;3.37;2.20;;;;;;;18.09;56.51;102168.06;5074472;28;20516;-90
2022/08/29 08:11:42;;;;;;;3.57;2.30;;;;;;;18.11;56.18;102173.31;5074250;28;20112;-91
2022/08/29 08:14:08;;;;;;;3.28;1.88;;;;;;;18.14;57.99;102173.19;5074302;28;20095;-91
2022/08/29 08:16:34;;;;;;;5.70;2.60;;;;;;;18.10;55.45;102171.56;5074248;28;20024;-91
2022/08/29 08:18:59;;;;;;;4.83;2.20;;;;;;;18.10;56.54;102176.81;5074073;28;20091;-91
2022/08/29 08:21:25;;;;;;;2.53;2.10;;;;;;;18.13;56.09;102168.84;5074240;28;20269;-90
2022/08/29 08:23:51;;;;;;;4.15;2.40;;;;;;;18.15;54.95;102180.19;5074356;28;20024;-89
2022/08/29 08:26:17;;;;;;;2.83;2.03;;;;;;;18.24;55.80;102165.94;5073755;28;20413;-90
2022/08/29 08:28:43;;;;;;;3.20;2.00;;;;;;;18.35;57.20;102169.16;5074277;28;20056;-91
2022/08/29 08:31:11;;;;;;;4.55;2.30;;;;;;;18.41;56.39;102170.75;5073323;28;20028;-91
2022/08/29 08:33:38;;;;;;;3.40;2.30;;;;;;;18.38;55.20;102166.44;5074093;28;20020;-91
2022/08/29 08:36:14;;;;;;;3.05;1.92;;;;;;;18.39;55.17;102173.44;5074033;28;20025;-90
2022/08/29 08:38:40;;;;;;;4.75;2.30;;;;;;;18.42;51.69;102173.31;5073502;28;20040;-91
2022/08/29 08:41:25;;;;;;;4.60;2.47;;;;;;;18.43;54.31;102179.47;5073889;28;20040;-91
2022/08/29 08:43:55;;;;;;;3.78;2.10;;;;;;;18.44;55.81;102181.19;5073653;28;20510;-91
2022/08/29 08:46:29;;;;;;;5.63;2.50;;;;;;;18.39;53.72;102181.31;5072904;28;20538;-90
2022/08/29 08:48:59;;;;;;;5.40;2.67;;;;;;;18.33;53.25;102173.59;5073876;28;20036;-91
2022/08/29 08:51:30;;;;;;;8.52;2.90;;;;;;;18.29;54.34;102166.69;5074219;28;20024;-90
2022/08/29 08:53:58;;;;;;;4.75;2.55;;;;;;;18.37;54.88;102169.97;5072655;28;20036;-91
2022/08/29 08:56:36;;;;;;;4.03;2.20;;;;;;;18.48;56.19;102167.03;5073841;28;20464;-90
2022/08/29 08:59:24;;;;;;;2.10;1.90;;;;;;;18.66;55.60;102171.81;5073659;28;20499;-90
2022/08/29 09:02:22;;;;;;;3.65;2.20;;;;;;;18.86;52.42;102173.00;5073544;28;20027;-90
2022/08/29 09:04:56;;;;;;;7.20;3.00;;;;;;;18.96;51.28;102174.47;5056409;28;20038;-90
2022/08/29 09:07:38;;;;;;;6.88;3.20;;;;;;;18.79;50.03;102176.72;5073061;28;20028;-90
2022/08/29 09:10:30;;;;;;;7.68;3.35;;;;;;;18.82;51.20;102176.59;5073466;28;20035;-91
2022/08/29 09:13:17;;;;;;;7.43;3.30;;;;;;;18.80;51.76;102181.06;5073837;28;20021;-91
2022/08/29 09:15:46;;;;;;;6.78;2.80;;;;;;;18.75;52.14;102185.59;5073612;28;20035;-92
2022/08/29 09:18:26;;;;;;;5.70;2.83;;;;;;;18.72;50.48;102180.41;5074039;28;20021;-91
2022/08/29 09:20:52;;;;;;;6.15;3.00;;;;;;;18.73;52.54;102180.38;5073403;28;20484;-91
2022/08/29 09:23:23;;;;;;;7.50;3.10;;;;;;;18.86;51.99;102178.25;5073667;28;20025;-90
2022/08/29 09:25:49;;;;;;;5.30;2.80;;;;;;;18.97;51.13;102186.72;5073802;28;20488;-91
2022/08/29 09:28:15;;;;;;;5.90;2.85;;;;;;;19.02;52.23;102186.59;5073056;28;20119;-91
2022/08/29 09:30:42;;;;;;;4.40;2.60;;;;;;;19.05;50.91;102185.63;5073586;28;20100;-91
2022/08/29 09:33:11;;;;;;;5.63;2.63;;;;;;;19.11;52.39;102190.72;5072924;28;20028;-91
2022/08/29 09:35:43;;;;;;;4.28;2.47;;;;;;;19.18;52.26;102189.63;5072371;28;20025;-90
2022/08/29 09:38:22;;;;;;;4.90;2.50;;;;;;;19.26;52.45;102194.66;5072190;28;20084;-87
2022/08/29 09:41:09;;;;;;;5.30;2.40;;;;;;;19.33;51.15;102201.44;5073495;28;20155;-90
2022/08/29 09:43:37;;;;;;;4.55;2.65;;;;;;;19.27;50.83;102199.88;5072743;28;20028;-90
2022/08/29 09:46:23;;;;;;;4.63;2.60;;;;;;;19.27;52.31;102197.22;5072835;28;20040;-86
2022/08/29 09:49:01;;;;;;;4.30;2.30;;;;;;;19.32;50.59;102198.88;5071630;28;20487;-83
2022/08/29 09:51:32;;;;;;;4.13;2.45;;;;;;;19.29;50.01;102198.06;5072269;28;20079;-84
2022/08/29 09:54:14;;;;;;;8.45;3.00;;;;;;;19.10;50.99;102189.84;5071929;28;20476;-89
2022/08/29 09:57:07;;;;;;;5.10;2.53;;;;;;;19.12;51.97;102187.19;5072057;28;20035;-90
2022/08/29 09:59:37;;;;;;;4.80;2.42;;;;;;;19.10;52.18;102181.94;5072632;28;20393;-88
2022/08/29 10:02:22;;;;;;;3.50;2.22;;;;;;;19.16;52.79;102180.91;5072167;28;20108;-88
2022/08/29 10:04:55;;;;;;;2.70;2.20;;;;;;;19.30;52.84;102185.78;5071822;28;20029;-88
2022/08/29 10:07:25;;;;;;;6.07;2.88;;;;;;;19.60;50.98;102183.94;5072373;28;20039;-88
2022/08/29 10:10:04;;;;;;;5.55;2.90;;;;;;;19.68;50.28;102181.06;5071048;28;20032;-87
2022/08/29 10:12:39;;;;;;;5.10;2.70;;;;;;;19.65;51.77;102172.41;5072370;28;20055;-88
2022/08/29 10:15:12;;;;;;;7.70;2.90;;;;;;;19.52;49.32;102179.84;5071634;28;20025;-87
2022/08/29 10:20:58;;;;;;;5.65;2.85;;;;;;;19.28;49.57;102198.97;5072598;28;20487;-87
2022/08/29 10:23:27;;;;;;;6.43;2.75;;;;;;;19.35;51.76;102186.47;5073270;28;20024;-87
2022/08/29 10:25:53;;;;;;;7.50;3.20;;;;;;;19.45;51.27;102189.69;5074792;28;20460;-87
2022/08/29 10:28:38;;;;;;;5.28;2.70;;;;;;;19.66;50.14;102189.91;5075504;28;20028;-88
2022/08/29 10:31:11;;;;;;;7.03;3.10;;;;;;;19.86;50.28;102184.88;5074854;28;20111;-87
2022/08/29 10:33:45;;;;;;;6.47;2.78;;;;;;;20.02;49.44;102181.75;5075721;28;20029;-87
2022/08/29 10:36:16;;;;;;;5.43;2.60;;;;;;;20.09;50.15;102185.88;5075297;28;20028;-87
2022/08/29 10:39:23;;;;;;;5.28;2.90;;;;;;;20.17;49.95;102177.72;5074716;28;20052;-87
2022/08/29 10:41:59;;;;;;;5.53;2.70;;;;;;;20.48;48.25;102164.31;5036336;28;20041;-87
2022/08/29 10:44:42;;;;;;;6.07;2.90;;;;;;;20.85;47.82;102172.69;5075398;28;20020;-89
2022/08/29 10:47:35;;;;;;;4.95;2.58;;;;;;;21.10;47.27;102169.97;5074722;28;20115;-87
2022/08/29 10:50:45;;;;;;;3.70;2.40;;;;;;;21.42;49.06;102166.97;5074597;28;20101;-87
2022/08/29 10:53:26;;;;;;;8.10;3.33;;;;;;;21.51;45.94;102171.00;5069826;28;20048;-87
2022/08/29 10:56:07;;;;;;;6.97;3.17;;;;;;;21.48;45.90;102172.00;5075149;28;20024;-87
2022/08/29 10:58:38;;;;;;;8.32;3.40;;;;;;;21.49;44.45;102163.16;5075261;28;20024;-87
2022/08/29 11:01:28;;;;;;;5.07;2.67;;;;;;;21.62;46.66;102166.19;5074264;28;20021;-86
2022/08/29 11:04:16;;;;;;;3.65;2.45;;;;;;;21.90;46.85;102163.25;5075033;28;20035;-86
2022/08/29 11:07:10;;;;;;;4.50;2.72;;;;;;;22.05;42.58;102152.94;5074362;28;20012;-87
2022/08/29 11:09:48;;;;;;;6.60;2.90;;;;;;;21.87;43.30;102158.13;5040249;28;20044;-87
2022/08/29 11:12:19;;;;;;;6.70;3.10;;;;;;;21.72;43.67;102145.53;5075075;28;20063;-87
2022/08/29 11:14:51;;;;;;;5.97;2.92;;;;;;;21.79;44.65;102148.78;5074405;28;20035;-94
2022/08/29 11:17:19;;;;;;;5.32;2.50;;;;;;;22.02;42.68;102137.22;5075777;28;20089;-92
2022/08/29 11:19:53;;;;;;;6.05;2.80;;;;;;;22.06;43.09;102144.09;5075205;28;20025;-87
2022/08/29 11:22:25;;;;;;;8.05;3.15;;;;;;;21.81;43.17;102145.13;5074073;28;20035;-88
2022/08/29 11:25:04;;;;;;;6.72;2.90;;;;;;;21.90;44.11;102130.69;5074320;28;20024;-88
2022/08/29 11:27:57;;;;;;;5.78;2.80;;;;;;;22.10;43.80;102121.91;5073901;28;20147;-88
2022/08/29 11:30:49;;;;;;;4.38;2.38;;;;;;;22.31;44.28;102119.22;5074416;28;20499;-87
2022/08/29 11:33:14;;;;;;;3.25;2.22;;;;;;;22.56;43.82;102116.34;5074716;28;20020;-85
2022/08/29 11:36:10;;;;;;;4.13;2.50;;;;;;;22.83;42.17;102121.31;5072577;28;20024;-87
2022/08/29 11:39:08;;;;;;;3.47;2.30;;;;;;;22.97;42.11;102115.34;5072882;28;20425;-86
2022/08/29 11:41:47;;;;;;;4.15;2.63;;;;;;;22.97;42.40;102110.91;5070672;28;20036;-87
2022/08/29 11:44:33;;;;;;;4.72;2.60;;;;;;;22.97;43.09;102107.41;5074067;28;20059;-86
2022/08/29 11:46:59;;;;;;;3.40;2.10;;;;;;;23.07;43.81;102105.19;5052671;28;20104;-86
2022/08/29 11:49:35;;;;;;;2.80;2.10;;;;;;;23.21;43.81;102100.09;5056747;28;20052;-85
2022/08/29 11:52:09;;;;;;;;;;;;;;;23.25;43.01;102106.97;5074260;28;20058;-85